sensor_id;sensor_type;location;lat;lon;timestamp;P1;durP1;ratioP1;P2;durP2;ratioP2
23252;SDS011;11795;47.054;15.408;2023-03-31T00:00:00;4.6;;;3.3;;
23252;SDS011;11795;47.054;15.408;2023-03-31T00:02:01;4.6;;;3.3;;
23252;SDS011;11795;47.054;15.408;2023-03-31T00:04:03;4.4;;;3.3;;
23252;SDS011;11795;47.054;15.408;2023-03-31T00:06:00;4.4;;;3.3;;
23252;SDS011;11795;47.054;15.408;2023-03-31T00:08:00;4.1;;;3.4;;
23252;SDS011;11795;47.054;15.408;2023-03-31T00:10:01;4.1;;;3.4;;
23252;SDS011;11795;47.054;15.408;2023-03-31T00:12:00;4.1;;;3.4;;
23252;SDS011;11795;47.054;15.408;2023-03-31T00:14:00;4.4;;;3.7;;
23252;SDS011;11795;47.054;15.408;2023-03-31T00:16:01;4.4;;;3.7;;
23252;SDS011;11795;47.054;15.408;2023-03-31T00:18:01;3.9;;;3.3;;
23252;SDS011;11795;47.054;15.408;2023-03-31T00:20:08;3.9;;;3.3;;
23252;SDS011;11795;47.054;15.408;2023-03-31T00:22:01;3.9;;;3.3;;
23252;SDS011;11795;47.054;15.408;2023-03-31T00:24:01;4.7;;;3.8;;
23252;SDS011;11795;47.054;15.408;2023-03-31T00:26:00;4.7;;;3.8;;
23252;SDS011;11795;47.054;15.408;2023-03-31T00:28:00;4.0;;;3.5;;
23252;SDS011;11795;47.054;15.408;2023-03-31T00:30:00;4.0;;;3.5;;
23252;SDS011;11795;47.054;15.408;2023-03-31T00:32:00;4.0;;;3.5;;
23252;SDS011;11795;47.054;15.408;2023-03-31T00:34:00;4.0;;;3.4;;
23252;SDS011;11795;47.054;15.408;2023-03-31T00:36:05;4.0;;;3.4;;
23252;SDS011;11795;47.054;15.408;2023-03-31T00:38:00;4.9;;;3.3;;
23252;SDS011;11795;47.054;15.408;2023-03-31T00:40:00;4.9;;;3.3;;
23252;SDS011;11795;47.054;15.408;2023-03-31T00:42:01;4.9;;;3.3;;
23252;SDS011;11795;47.054;15.408;2023-03-31T00:44:04;4.2;;;3.7;;
23252;SDS011;11795;47.054;15.408;2023-03-31T00:46:02;4.2;;;3.7;;
23252;SDS011;11795;47.054;15.408;2023-03-31T00:48:04;4.2;;;3.8;;
23252;SDS011;11795;47.054;15.408;2023-03-31T00:50:00;4.2;;;3.8;;
23252;SDS011;11795;47.054;15.408;2023-03-31T00:52:02;4.2;;;3.8;;
23252;SDS011;11795;47.054;15.408;2023-03-31T00:54:02;5.1;;;3.9;;
23252;SDS011;11795;47.054;15.408;2023-03-31T00:56:01;5.1;;;3.9;;
23252;SDS011;11795;47.054;15.408;2023-03-31T00:58:01;4.0;;;3.6;;
23252;SDS011;11795;47.054;15.408;2023-03-31T01:00:03;4.0;;;3.6;;
23252;SDS011;11795;47.054;15.408;2023-03-31T01:02:01;4.0;;;3.6;;
23252;SDS011;11795;47.054;15.408;2023-03-31T01:04:01;4.6;;;3.9;;
23252;SDS011;11795;47.054;15.408;2023-03-31T01:06:00;4.6;;;3.9;;
23252;SDS011;11795;47.054;15.408;2023-03-31T01:08:01;4.0;;;3.6;;
23252;SDS011;11795;47.054;15.408;2023-03-31T01:10:01;4.0;;;3.6;;
23252;SDS011;11795;47.054;15.408;2023-03-31T01:12:02;4.0;;;3.6;;
23252;SDS011;11795;47.054;15.408;2023-03-31T01:14:00;4.7;;;4.2;;
23252;SDS011;11795;47.054;15.408;2023-03-31T01:16:00;4.7;;;4.2;;
23252;SDS011;11795;47.054;15.408;2023-03-31T01:18:00;4.5;;;3.8;;
23252;SDS011;11795;47.054;15.408;2023-03-31T01:20:03;4.5;;;3.8;;
23252;SDS011;11795;47.054;15.408;2023-03-31T01:22:10;4.5;;;3.8;;
23252;SDS011;11795;47.054;15.408;2023-03-31T01:24:11;4.0;;;3.6;;
23252;SDS011;11795;47.054;15.408;2023-03-31T01:26:07;4.0;;;3.6;;
23252;SDS011;11795;47.054;15.408;2023-03-31T01:28:03;3.9;;;3.5;;
23252;SDS011;11795;47.054;15.408;2023-03-31T01:36:05;5.0;;;3.5;;
23252;SDS011;11795;47.054;15.408;2023-03-31T01:38:09;4.1;;;3.4;;
23252;SDS011;11795;47.054;15.408;2023-03-31T01:42:01;4.1;;;3.4;;
23252;SDS011;11795;47.054;15.408;2023-03-31T01:44:03;4.5;;;3.8;;
23252;SDS011;11795;47.054;15.408;2023-03-31T01:46:01;4.5;;;3.8;;
23252;SDS011;11795;47.054;15.408;2023-03-31T01:48:03;5.2;;;3.3;;
23252;SDS011;11795;47.054;15.408;2023-03-31T01:50:01;5.2;;;3.3;;
23252;SDS011;11795;47.054;15.408;2023-03-31T01:52:02;5.2;;;3.3;;
23252;SDS011;11795;47.054;15.408;2023-03-31T01:54:02;3.5;;;3.1;;
23252;SDS011;11795;47.054;15.408;2023-03-31T01:56:01;3.5;;;3.1;;
23252;SDS011;11795;47.054;15.408;2023-03-31T01:58:02;3.5;;;2.9;;
23252;SDS011;11795;47.054;15.408;2023-03-31T02:00:01;3.5;;;2.9;;
23252;SDS011;11795;47.054;15.408;2023-03-31T02:02:01;3.5;;;2.9;;
23252;SDS011;11795;47.054;15.408;2023-03-31T02:04:02;3.8;;;3.5;;
23252;SDS011;11795;47.054;15.408;2023-03-31T02:06:02;3.8;;;3.5;;
23252;SDS011;11795;47.054;15.408;2023-03-31T02:08:01;5.2;;;3.9;;
23252;SDS011;11795;47.054;15.408;2023-03-31T02:10:01;5.2;;;3.9;;
23252;SDS011;11795;47.054;15.408;2023-03-31T02:12:01;5.2;;;3.9;;
23252;SDS011;11795;47.054;15.408;2023-03-31T02:14:01;4.7;;;3.8;;
23252;SDS011;11795;47.054;15.408;2023-03-31T02:16:01;4.7;;;3.8;;
23252;SDS011;11795;47.054;15.408;2023-03-31T02:18:00;3.9;;;3.4;;
23252;SDS011;11795;47.054;15.408;2023-03-31T02:20:03;3.9;;;3.4;;
23252;SDS011;11795;47.054;15.408;2023-03-31T02:22:00;3.9;;;3.4;;
23252;SDS011;11795;47.054;15.408;2023-03-31T02:24:01;4.0;;;3.6;;
23252;SDS011;11795;47.054;15.408;2023-03-31T02:26:01;4.0;;;3.6;;
23252;SDS011;11795;47.054;15.408;2023-03-31T02:28:00;4.6;;;3.6;;
23252;SDS011;11795;47.054;15.408;2023-03-31T02:30:00;4.6;;;3.6;;
23252;SDS011;11795;47.054;15.408;2023-03-31T02:32:02;4.6;;;3.6;;
23252;SDS011;11795;47.054;15.408;2023-03-31T02:34:02;5.1;;;4.6;;
23252;SDS011;11795;47.054;15.408;2023-03-31T02:36:00;5.1;;;4.6;;
23252;SDS011;11795;47.054;15.408;2023-03-31T02:38:01;5.6;;;4.2;;
23252;SDS011;11795;47.054;15.408;2023-03-31T02:40:02;5.6;;;4.2;;
23252;SDS011;11795;47.054;15.408;2023-03-31T02:42:06;5.6;;;4.2;;
23252;SDS011;11795;47.054;15.408;2023-03-31T02:44:00;5.3;;;3.8;;
23252;SDS011;11795;47.054;15.408;2023-03-31T02:46:00;5.3;;;3.8;;
23252;SDS011;11795;47.054;15.408;2023-03-31T02:48:00;5.5;;;3.9;;
23252;SDS011;11795;47.054;15.408;2023-03-31T02:50:00;5.5;;;3.9;;
23252;SDS011;11795;47.054;15.408;2023-03-31T02:52:07;5.5;;;3.9;;
23252;SDS011;11795;47.054;15.408;2023-03-31T02:54:07;4.4;;;4.0;;
23252;SDS011;11795;47.054;15.408;2023-03-31T02:56:04;4.4;;;4.0;;
23252;SDS011;11795;47.054;15.408;2023-03-31T02:58:05;7.0;;;3.7;;
23252;SDS011;11795;47.054;15.408;2023-03-31T03:00:03;7.0;;;3.7;;
23252;SDS011;11795;47.054;15.408;2023-03-31T03:02:05;7.0;;;3.7;;
23252;SDS011;11795;47.054;15.408;2023-03-31T03:04:02;4.6;;;3.8;;
23252;SDS011;11795;47.054;15.408;2023-03-31T03:06:03;4.6;;;3.8;;
23252;SDS011;11795;47.054;15.408;2023-03-31T03:08:03;4.7;;;4.1;;
23252;SDS011;11795;47.054;15.408;2023-03-31T03:10:01;4.7;;;4.1;;
23252;SDS011;11795;47.054;15.408;2023-03-31T03:12:05;4.7;;;4.1;;
23252;SDS011;11795;47.054;15.408;2023-03-31T03:14:03;4.8;;;3.8;;
23252;SDS011;11795;47.054;15.408;2023-03-31T03:16:02;4.8;;;3.8;;
23252;SDS011;11795;47.054;15.408;2023-03-31T03:18:00;4.8;;;4.0;;
23252;SDS011;11795;47.054;15.408;2023-03-31T03:20:02;4.8;;;4.0;;
23252;SDS011;11795;47.054;15.408;2023-03-31T03:22:00;4.8;;;4.0;;
23252;SDS011;11795;47.054;15.408;2023-03-31T03:24:00;5.6;;;4.5;;
23252;SDS011;11795;47.054;15.408;2023-03-31T03:26:00;5.6;;;4.5;;
23252;SDS011;11795;47.054;15.408;2023-03-31T03:28:00;6.6;;;4.8;;
23252;SDS011;11795;47.054;15.408;2023-03-31T03:30:04;6.6;;;4.8;;
23252;SDS011;11795;47.054;15.408;2023-03-31T03:32:00;6.6;;;4.8;;
23252;SDS011;11795;47.054;15.408;2023-03-31T03:34:00;5.2;;;4.5;;
23252;SDS011;11795;47.054;15.408;2023-03-31T03:36:00;5.2;;;4.5;;
23252;SDS011;11795;47.054;15.408;2023-03-31T03:38:00;7.0;;;4.8;;
23252;SDS011;11795;47.054;15.408;2023-03-31T03:40:00;7.0;;;4.8;;
23252;SDS011;11795;47.054;15.408;2023-03-31T03:42:00;7.0;;;4.8;;
23252;SDS011;11795;47.054;15.408;2023-03-31T03:44:00;6.1;;;4.6;;
23252;SDS011;11795;47.054;15.408;2023-03-31T03:46:00;6.1;;;4.6;;
23252;SDS011;11795;47.054;15.408;2023-03-31T03:48:00;7.0;;;4.6;;
23252;SDS011;11795;47.054;15.408;2023-03-31T03:50:00;7.0;;;4.6;;
23252;SDS011;11795;47.054;15.408;2023-03-31T03:52:00;7.0;;;4.6;;
23252;SDS011;11795;47.054;15.408;2023-03-31T03:54:00;6.2;;;4.9;;
23252;SDS011;11795;47.054;15.408;2023-03-31T03:56:00;6.2;;;4.9;;
23252;SDS011;11795;47.054;15.408;2023-03-31T03:58:00;5.9;;;4.8;;
23252;SDS011;11795;47.054;15.408;2023-03-31T04:00:00;5.9;;;4.8;;
23252;SDS011;11795;47.054;15.408;2023-03-31T04:02:00;5.9;;;4.8;;
23252;SDS011;11795;47.054;15.408;2023-03-31T04:04:00;10.1;;;5.4;;
23252;SDS011;11795;47.054;15.408;2023-03-31T04:06:00;10.1;;;5.4;;
23252;SDS011;11795;47.054;15.408;2023-03-31T04:08:00;6.9;;;5.1;;
23252;SDS011;11795;47.054;15.408;2023-03-31T04:10:00;6.9;;;5.1;;
23252;SDS011;11795;47.054;15.408;2023-03-31T04:12:00;6.9;;;5.1;;
23252;SDS011;11795;47.054;15.408;2023-03-31T04:14:00;6.7;;;4.4;;
23252;SDS011;11795;47.054;15.408;2023-03-31T04:16:00;6.7;;;4.4;;
23252;SDS011;11795;47.054;15.408;2023-03-31T04:18:00;5.4;;;4.2;;
23252;SDS011;11795;47.054;15.408;2023-03-31T04:20:01;5.4;;;4.2;;
23252;SDS011;11795;47.054;15.408;2023-03-31T04:22:01;5.4;;;4.2;;
23252;SDS011;11795;47.054;15.408;2023-03-31T04:24:03;6.1;;;4.8;;
23252;SDS011;11795;47.054;15.408;2023-03-31T04:26:01;6.1;;;4.8;;
23252;SDS011;11795;47.054;15.408;2023-03-31T04:28:00;5.1;;;4.3;;
23252;SDS011;11795;47.054;15.408;2023-03-31T04:30:00;5.1;;;4.3;;
23252;SDS011;11795;47.054;15.408;2023-03-31T04:32:00;5.1;;;4.3;;
23252;SDS011;11795;47.054;15.408;2023-03-31T04:34:01;5.0;;;4.5;;
23252;SDS011;11795;47.054;15.408;2023-03-31T04:36:06;5.0;;;4.5;;
23252;SDS011;11795;47.054;15.408;2023-03-31T04:38:01;5.8;;;5.0;;
23252;SDS011;11795;47.054;15.408;2023-03-31T04:40:08;5.8;;;5.0;;
23252;SDS011;11795;47.054;15.408;2023-03-31T04:42:00;5.8;;;5.0;;
23252;SDS011;11795;47.054;15.408;2023-03-31T04:44:00;6.3;;;4.5;;
23252;SDS011;11795;47.054;15.408;2023-03-31T04:46:00;6.3;;;4.5;;
23252;SDS011;11795;47.054;15.408;2023-03-31T04:48:00;7.0;;;4.6;;
23252;SDS011;11795;47.054;15.408;2023-03-31T04:50:00;7.0;;;4.6;;
23252;SDS011;11795;47.054;15.408;2023-03-31T04:52:01;7.0;;;4.6;;
23252;SDS011;11795;47.054;15.408;2023-03-31T04:54:00;12.6;;;9.9;;
23252;SDS011;11795;47.054;15.408;2023-03-31T04:56:00;12.6;;;9.9;;
23252;SDS011;11795;47.054;15.408;2023-03-31T04:58:00;11.5;;;9.7;;
23252;SDS011;11795;47.054;15.408;2023-03-31T05:00:00;11.5;;;9.7;;
23252;SDS011;11795;47.054;15.408;2023-03-31T05:02:00;11.5;;;9.7;;
23252;SDS011;11795;47.054;15.408;2023-03-31T05:04:00;10.6;;;8.2;;
23252;SDS011;11795;47.054;15.408;2023-03-31T05:06:00;10.6;;;8.2;;
23252;SDS011;11795;47.054;15.408;2023-03-31T05:08:00;8.8;;;7.2;;
23252;SDS011;11795;47.054;15.408;2023-03-31T05:10:00;8.8;;;7.2;;
23252;SDS011;11795;47.054;15.408;2023-03-31T05:12:00;8.8;;;7.2;;
23252;SDS011;11795;47.054;15.408;2023-03-31T05:14:00;12.2;;;9.8;;
23252;SDS011;11795;47.054;15.408;2023-03-31T05:16:05;12.2;;;9.8;;
23252;SDS011;11795;47.054;15.408;2023-03-31T05:18:00;9.8;;;8.8;;
23252;SDS011;11795;47.054;15.408;2023-03-31T05:20:00;9.8;;;8.8;;
23252;SDS011;11795;47.054;15.408;2023-03-31T05:22:00;9.8;;;8.8;;
23252;SDS011;11795;47.054;15.408;2023-03-31T05:24:00;11.3;;;8.8;;
23252;SDS011;11795;47.054;15.408;2023-03-31T05:26:00;11.3;;;8.8;;
23252;SDS011;11795;47.054;15.408;2023-03-31T05:28:00;10.4;;;8.5;;
23252;SDS011;11795;47.054;15.408;2023-03-31T05:30:00;10.4;;;8.5;;
23252;SDS011;11795;47.054;15.408;2023-03-31T05:32:00;10.4;;;8.5;;
23252;SDS011;11795;47.054;15.408;2023-03-31T05:34:00;10.3;;;8.7;;
23252;SDS011;11795;47.054;15.408;2023-03-31T05:36:00;10.3;;;8.7;;
23252;SDS011;11795;47.054;15.408;2023-03-31T05:38:00;10.9;;;9.2;;
23252;SDS011;11795;47.054;15.408;2023-03-31T05:40:00;10.9;;;9.2;;
23252;SDS011;11795;47.054;15.408;2023-03-31T05:42:00;10.9;;;9.2;;
23252;SDS011;11795;47.054;15.408;2023-03-31T05:44:01;14.7;;;10.4;;
23252;SDS011;11795;47.054;15.408;2023-03-31T05:46:00;14.7;;;10.4;;
23252;SDS011;11795;47.054;15.408;2023-03-31T05:48:00;14.4;;;9.5;;
23252;SDS011;11795;47.054;15.408;2023-03-31T05:50:01;14.4;;;9.5;;
23252;SDS011;11795;47.054;15.408;2023-03-31T05:52:00;14.4;;;9.5;;
23252;SDS011;11795;47.054;15.408;2023-03-31T05:54:00;11.7;;;9.0;;
23252;SDS011;11795;47.054;15.408;2023-03-31T05:56:01;11.7;;;9.0;;
23252;SDS011;11795;47.054;15.408;2023-03-31T05:58:00;10.3;;;8.3;;
23252;SDS011;11795;47.054;15.408;2023-03-31T06:00:01;10.3;;;8.3;;
23252;SDS011;11795;47.054;15.408;2023-03-31T06:02:00;10.3;;;8.3;;
23252;SDS011;11795;47.054;15.408;2023-03-31T06:04:00;10.8;;;8.3;;
23252;SDS011;11795;47.054;15.408;2023-03-31T06:06:01;10.8;;;8.3;;
23252;SDS011;11795;47.054;15.408;2023-03-31T06:08:00;11.1;;;8.2;;
23252;SDS011;11795;47.054;15.408;2023-03-31T06:10:00;11.1;;;8.2;;
23252;SDS011;11795;47.054;15.408;2023-03-31T06:12:00;11.1;;;8.2;;
23252;SDS011;11795;47.054;15.408;2023-03-31T06:14:00;11.1;;;8.5;;
23252;SDS011;11795;47.054;15.408;2023-03-31T06:16:00;11.1;;;8.5;;
23252;SDS011;11795;47.054;15.408;2023-03-31T06:18:00;10.5;;;8.3;;
23252;SDS011;11795;47.054;15.408;2023-03-31T06:20:00;10.5;;;8.3;;
23252;SDS011;11795;47.054;15.408;2023-03-31T06:22:00;10.5;;;8.3;;
23252;SDS011;11795;47.054;15.408;2023-03-31T06:24:00;11.1;;;8.3;;
23252;SDS011;11795;47.054;15.408;2023-03-31T06:26:01;11.1;;;8.3;;
23252;SDS011;11795;47.054;15.408;2023-03-31T06:28:01;8.8;;;7.1;;
23252;SDS011;11795;47.054;15.408;2023-03-31T06:30:00;8.8;;;7.1;;
23252;SDS011;11795;47.054;15.408;2023-03-31T06:32:01;8.8;;;7.1;;
23252;SDS011;11795;47.054;15.408;2023-03-31T06:34:00;9.2;;;7.6;;
23252;SDS011;11795;47.054;15.408;2023-03-31T06:36:03;9.2;;;7.6;;
23252;SDS011;11795;47.054;15.408;2023-03-31T06:38:00;9.5;;;7.6;;
23252;SDS011;11795;47.054;15.408;2023-03-31T06:40:00;9.5;;;7.6;;
23252;SDS011;11795;47.054;15.408;2023-03-31T06:42:00;9.5;;;7.6;;
23252;SDS011;11795;47.054;15.408;2023-03-31T06:44:00;8.9;;;8.0;;
23252;SDS011;11795;47.054;15.408;2023-03-31T06:46:00;8.9;;;8.0;;
23252;SDS011;11795;47.054;15.408;2023-03-31T06:48:00;8.8;;;7.4;;
23252;SDS011;11795;47.054;15.408;2023-03-31T06:50:00;8.8;;;7.4;;
23252;SDS011;11795;47.054;15.408;2023-03-31T06:52:00;8.8;;;7.4;;
23252;SDS011;11795;47.054;15.408;2023-03-31T06:54:00;11.8;;;8.4;;
23252;SDS011;11795;47.054;15.408;2023-03-31T06:56:00;11.8;;;8.4;;
23252;SDS011;11795;47.054;15.408;2023-03-31T06:58:00;15.6;;;9.0;;
23252;SDS011;11795;47.054;15.408;2023-03-31T07:00:00;15.6;;;9.0;;
23252;SDS011;11795;47.054;15.408;2023-03-31T07:02:01;15.6;;;9.0;;
23252;SDS011;11795;47.054;15.408;2023-03-31T07:04:00;16.7;;;11.1;;
23252;SDS011;11795;47.054;15.408;2023-03-31T07:06:00;16.7;;;11.1;;
23252;SDS011;11795;47.054;15.408;2023-03-31T07:08:00;15.0;;;10.7;;
23252;SDS011;11795;47.054;15.408;2023-03-31T07:10:00;15.0;;;10.7;;
23252;SDS011;11795;47.054;15.408;2023-03-31T07:12:00;15.0;;;10.7;;
23252;SDS011;11795;47.054;15.408;2023-03-31T07:14:00;10.5;;;9.3;;
23252;SDS011;11795;47.054;15.408;2023-03-31T07:16:00;10.5;;;9.3;;
23252;SDS011;11795;47.054;15.408;2023-03-31T07:18:01;13.7;;;10.9;;
23252;SDS011;11795;47.054;15.408;2023-03-31T07:20:00;13.7;;;10.9;;
23252;SDS011;11795;47.054;15.408;2023-03-31T07:22:00;13.7;;;10.9;;
23252;SDS011;11795;47.054;15.408;2023-03-31T07:24:00;9.9;;;8.3;;
23252;SDS011;11795;47.054;15.408;2023-03-31T07:26:01;9.9;;;8.3;;
23252;SDS011;11795;47.054;15.408;2023-03-31T07:28:00;9.9;;;7.6;;
23252;SDS011;11795;47.054;15.408;2023-03-31T07:30:00;9.9;;;7.6;;
23252;SDS011;11795;47.054;15.408;2023-03-31T07:32:00;9.9;;;7.6;;
23252;SDS011;11795;47.054;15.408;2023-03-31T07:34:00;9.5;;;7.5;;
23252;SDS011;11795;47.054;15.408;2023-03-31T07:36:02;9.5;;;7.5;;
23252;SDS011;11795;47.054;15.408;2023-03-31T07:38:00;9.2;;;6.7;;
23252;SDS011;11795;47.054;15.408;2023-03-31T07:40:00;9.2;;;6.7;;
23252;SDS011;11795;47.054;15.408;2023-03-31T07:42:00;9.2;;;6.7;;
23252;SDS011;11795;47.054;15.408;2023-03-31T07:44:00;10.1;;;7.9;;
23252;SDS011;11795;47.054;15.408;2023-03-31T07:46:00;10.1;;;7.9;;
23252;SDS011;11795;47.054;15.408;2023-03-31T07:48:00;13.7;;;8.7;;
23252;SDS011;11795;47.054;15.408;2023-03-31T07:50:00;13.7;;;8.7;;
23252;SDS011;11795;47.054;15.408;2023-03-31T07:52:00;13.7;;;8.7;;
23252;SDS011;11795;47.054;15.408;2023-03-31T07:54:00;8.6;;;6.9;;
23252;SDS011;11795;47.054;15.408;2023-03-31T07:56:00;8.6;;;6.9;;
23252;SDS011;11795;47.054;15.408;2023-03-31T07:58:00;8.6;;;6.9;;
23252;SDS011;11795;47.054;15.408;2023-03-31T08:00:05;10.5;;;6.1;;
23252;SDS011;11795;47.054;15.408;2023-03-31T08:02:00;10.5;;;6.1;;
23252;SDS011;11795;47.054;15.408;2023-03-31T08:04:01;9.7;;;5.9;;
23252;SDS011;11795;47.054;15.408;2023-03-31T08:06:00;9.7;;;5.9;;
23252;SDS011;11795;47.054;15.408;2023-03-31T08:08:01;9.7;;;5.9;;
23252;SDS011;11795;47.054;15.408;2023-03-31T08:10:01;7.2;;;5.2;;
23252;SDS011;11795;47.054;15.408;2023-03-31T08:12:00;7.2;;;5.2;;
23252;SDS011;11795;47.054;15.408;2023-03-31T08:14:00;6.1;;;4.4;;
23252;SDS011;11795;47.054;15.408;2023-03-31T08:16:00;6.1;;;4.4;;
23252;SDS011;11795;47.054;15.408;2023-03-31T08:18:00;6.1;;;4.4;;
23252;SDS011;11795;47.054;15.408;2023-03-31T08:20:00;4.7;;;3.9;;
23252;SDS011;11795;47.054;15.408;2023-03-31T08:22:00;4.7;;;3.9;;
23252;SDS011;11795;47.054;15.408;2023-03-31T08:24:00;7.1;;;4.2;;
23252;SDS011;11795;47.054;15.408;2023-03-31T08:26:08;7.1;;;4.2;;
23252;SDS011;11795;47.054;15.408;2023-03-31T08:28:00;7.1;;;4.2;;
23252;SDS011;11795;47.054;15.408;2023-03-31T08:30:03;7.1;;;3.9;;
23252;SDS011;11795;47.054;15.408;2023-03-31T08:32:00;7.1;;;3.9;;
23252;SDS011;11795;47.054;15.408;2023-03-31T08:34:01;6.5;;;3.7;;
23252;SDS011;11795;47.054;15.408;2023-03-31T08:36:01;6.5;;;3.7;;
23252;SDS011;11795;47.054;15.408;2023-03-31T08:38:00;6.5;;;3.7;;
23252;SDS011;11795;47.054;15.408;2023-03-31T08:40:02;5.1;;;3.8;;
23252;SDS011;11795;47.054;15.408;2023-03-31T08:42:01;5.1;;;3.8;;
23252;SDS011;11795;47.054;15.408;2023-03-31T08:44:01;5.6;;;3.6;;
23252;SDS011;11795;47.054;15.408;2023-03-31T08:46:00;5.6;;;3.6;;
23252;SDS011;11795;47.054;15.408;2023-03-31T08:48:01;5.6;;;3.6;;
23252;SDS011;11795;47.054;15.408;2023-03-31T08:50:02;5.3;;;3.0;;
23252;SDS011;11795;47.054;15.408;2023-03-31T08:52:01;5.3;;;3.0;;
23252;SDS011;11795;47.054;15.408;2023-03-31T08:54:02;4.9;;;3.2;;
23252;SDS011;11795;47.054;15.408;2023-03-31T08:56:00;4.9;;;3.2;;
23252;SDS011;11795;47.054;15.408;2023-03-31T08:58:02;4.9;;;3.2;;
23252;SDS011;11795;47.054;15.408;2023-03-31T09:00:08;5.1;;;3.2;;
23252;SDS011;11795;47.054;15.408;2023-03-31T09:02:02;5.1;;;3.2;;
23252;SDS011;11795;47.054;15.408;2023-03-31T09:04:06;5.7;;;3.3;;
23252;SDS011;11795;47.054;15.408;2023-03-31T09:06:00;5.7;;;3.3;;
23252;SDS011;11795;47.054;15.408;2023-03-31T09:08:03;5.7;;;3.3;;
23252;SDS011;11795;47.054;15.408;2023-03-31T09:10:02;5.3;;;2.8;;
23252;SDS011;11795;47.054;15.408;2023-03-31T09:12:01;5.3;;;2.8;;
23252;SDS011;11795;47.054;15.408;2023-03-31T09:16:01;4.3;;;2.4;;
23252;SDS011;11795;47.054;15.408;2023-03-31T09:18:02;4.3;;;2.4;;
23252;SDS011;11795;47.054;15.408;2023-03-31T09:20:02;2.6;;;1.9;;
23252;SDS011;11795;47.054;15.408;2023-03-31T09:22:00;2.6;;;1.9;;
23252;SDS011;11795;47.054;15.408;2023-03-31T09:24:03;2.4;;;1.3;;
23252;SDS011;11795;47.054;15.408;2023-03-31T09:26:00;2.4;;;1.3;;
23252;SDS011;11795;47.054;15.408;2023-03-31T09:28:01;2.4;;;1.3;;
23252;SDS011;11795;47.054;15.408;2023-03-31T09:30:01;2.7;;;1.4;;
23252;SDS011;11795;47.054;15.408;2023-03-31T09:32:01;2.7;;;1.4;;
23252;SDS011;11795;47.054;15.408;2023-03-31T09:34:00;4.0;;;1.6;;
23252;SDS011;11795;47.054;15.408;2023-03-31T09:36:00;4.0;;;1.6;;
23252;SDS011;11795;47.054;15.408;2023-03-31T09:38:00;4.0;;;1.6;;
23252;SDS011;11795;47.054;15.408;2023-03-31T09:40:01;2.8;;;1.5;;
23252;SDS011;11795;47.054;15.408;2023-03-31T09:42:00;2.8;;;1.5;;
23252;SDS011;11795;47.054;15.408;2023-03-31T09:44:00;3.6;;;1.6;;
23252;SDS011;11795;47.054;15.408;2023-03-31T09:46:00;3.6;;;1.6;;
23252;SDS011;11795;47.054;15.408;2023-03-31T09:48:01;3.6;;;1.6;;
23252;SDS011;11795;47.054;15.408;2023-03-31T09:50:00;2.7;;;1.6;;
23252;SDS011;11795;47.054;15.408;2023-03-31T09:52:02;2.7;;;1.6;;
23252;SDS011;11795;47.054;15.408;2023-03-31T09:54:01;2.0;;;1.5;;
23252;SDS011;11795;47.054;15.408;2023-03-31T09:56:01;2.0;;;1.5;;
23252;SDS011;11795;47.054;15.408;2023-03-31T09:58:00;2.0;;;1.5;;
23252;SDS011;11795;47.054;15.408;2023-03-31T10:00:01;2.5;;;1.4;;
23252;SDS011;11795;47.054;15.408;2023-03-31T10:02:02;2.5;;;1.4;;
23252;SDS011;11795;47.054;15.408;2023-03-31T10:04:05;2.5;;;1.1;;
23252;SDS011;11795;47.054;15.408;2023-03-31T10:06:00;2.5;;;1.1;;
23252;SDS011;11795;47.054;15.408;2023-03-31T10:10:00;2.4;;;1.3;;
23252;SDS011;11795;47.054;15.408;2023-03-31T10:12:02;2.4;;;1.3;;
23252;SDS011;11795;47.054;15.408;2023-03-31T10:14:01;1.9;;;1.3;;
23252;SDS011;11795;47.054;15.408;2023-03-31T10:16:01;1.9;;;1.3;;
23252;SDS011;11795;47.054;15.408;2023-03-31T10:18:00;1.9;;;1.3;;
23252;SDS011;11795;47.054;15.408;2023-03-31T10:20:04;1.5;;;1.2;;
23252;SDS011;11795;47.054;15.408;2023-03-31T10:22:01;1.5;;;1.2;;
23252;SDS011;11795;47.054;15.408;2023-03-31T10:24:01;1.5;;;1.0;;
23252;SDS011;11795;47.054;15.408;2023-03-31T10:26:00;1.5;;;1.0;;
23252;SDS011;11795;47.054;15.408;2023-03-31T10:28:00;1.5;;;1.0;;
23252;SDS011;11795;47.054;15.408;2023-03-31T10:30:00;3.2;;;1.5;;
23252;SDS011;11795;47.054;15.408;2023-03-31T10:32:02;3.2;;;1.5;;
23252;SDS011;11795;47.054;15.408;2023-03-31T10:34:03;1.1;;;1.0;;
23252;SDS011;11795;47.054;15.408;2023-03-31T10:36:01;1.1;;;1.0;;
23252;SDS011;11795;47.054;15.408;2023-03-31T10:38:01;1.1;;;1.0;;
23252;SDS011;11795;47.054;15.408;2023-03-31T10:40:00;1.1;;;0.8;;
23252;SDS011;11795;47.054;15.408;2023-03-31T10:42:00;1.1;;;0.8;;
23252;SDS011;11795;47.054;15.408;2023-03-31T10:44:02;1.8;;;1.1;;
23252;SDS011;11795;47.054;15.408;2023-03-31T10:46:01;1.8;;;1.1;;
23252;SDS011;11795;47.054;15.408;2023-03-31T10:48:00;1.8;;;1.1;;
23252;SDS011;11795;47.054;15.408;2023-03-31T10:50:02;1.7;;;1.1;;
23252;SDS011;11795;47.054;15.408;2023-03-31T10:52:00;1.7;;;1.1;;
23252;SDS011;11795;47.054;15.408;2023-03-31T10:54:02;1.5;;;1.1;;
23252;SDS011;11795;47.054;15.408;2023-03-31T10:56:03;1.5;;;1.1;;
23252;SDS011;11795;47.054;15.408;2023-03-31T10:58:01;1.5;;;1.1;;
23252;SDS011;11795;47.054;15.408;2023-03-31T11:00:03;1.2;;;1.0;;
23252;SDS011;11795;47.054;15.408;2023-03-31T11:02:05;1.2;;;1.0;;
23252;SDS011;11795;47.054;15.408;2023-03-31T11:04:05;2.0;;;1.3;;
23252;SDS011;11795;47.054;15.408;2023-03-31T11:06:01;2.0;;;1.3;;
23252;SDS011;11795;47.054;15.408;2023-03-31T11:08:03;2.0;;;1.3;;
23252;SDS011;11795;47.054;15.408;2023-03-31T11:10:04;1.7;;;0.9;;
23252;SDS011;11795;47.054;15.408;2023-03-31T11:12:02;1.7;;;0.9;;
23252;SDS011;11795;47.054;15.408;2023-03-31T11:14:03;2.7;;;1.1;;
23252;SDS011;11795;47.054;15.408;2023-03-31T11:16:02;2.7;;;1.1;;
23252;SDS011;11795;47.054;15.408;2023-03-31T11:20:03;2.0;;;0.9;;
23252;SDS011;11795;47.054;15.408;2023-03-31T11:22:03;2.0;;;0.9;;
23252;SDS011;11795;47.054;15.408;2023-03-31T11:24:03;2.0;;;1.0;;
23252;SDS011;11795;47.054;15.408;2023-03-31T11:26:02;2.0;;;1.0;;
23252;SDS011;11795;47.054;15.408;2023-03-31T11:28:05;2.0;;;1.0;;
23252;SDS011;11795;47.054;15.408;2023-03-31T11:30:01;2.0;;;0.8;;
23252;SDS011;11795;47.054;15.408;2023-03-31T11:32:06;2.0;;;0.8;;
23252;SDS011;11795;47.054;15.408;2023-03-31T11:34:04;2.2;;;0.8;;
23252;SDS011;11795;47.054;15.408;2023-03-31T11:36:06;2.2;;;0.8;;
23252;SDS011;11795;47.054;15.408;2023-03-31T11:38:07;2.2;;;0.8;;
23252;SDS011;11795;47.054;15.408;2023-03-31T11:40:05;4.6;;;1.6;;
23252;SDS011;11795;47.054;15.408;2023-03-31T11:42:00;4.6;;;1.6;;
23252;SDS011;11795;47.054;15.408;2023-03-31T11:44:03;1.1;;;0.7;;
23252;SDS011;11795;47.054;15.408;2023-03-31T11:46:00;1.1;;;0.7;;
23252;SDS011;11795;47.054;15.408;2023-03-31T11:48:03;1.1;;;0.7;;
23252;SDS011;11795;47.054;15.408;2023-03-31T11:50:02;1.2;;;0.8;;
23252;SDS011;11795;47.054;15.408;2023-03-31T11:52:01;1.2;;;0.8;;
23252;SDS011;11795;47.054;15.408;2023-03-31T11:54:01;2.1;;;1.0;;
23252;SDS011;11795;47.054;15.408;2023-03-31T11:56:01;2.1;;;1.0;;
23252;SDS011;11795;47.054;15.408;2023-03-31T11:58:01;2.1;;;1.0;;
23252;SDS011;11795;47.054;15.408;2023-03-31T12:00:02;1.4;;;0.7;;
23252;SDS011;11795;47.054;15.408;2023-03-31T12:02:03;1.4;;;0.7;;
23252;SDS011;11795;47.054;15.408;2023-03-31T12:04:01;1.8;;;0.7;;
23252;SDS011;11795;47.054;15.408;2023-03-31T12:06:02;1.8;;;0.7;;
23252;SDS011;11795;47.054;15.408;2023-03-31T12:08:01;1.8;;;0.7;;
23252;SDS011;11795;47.054;15.408;2023-03-31T12:10:10;2.1;;;1.0;;
23252;SDS011;11795;47.054;15.408;2023-03-31T12:12:01;2.1;;;1.0;;
23252;SDS011;11795;47.054;15.408;2023-03-31T12:14:03;1.8;;;1.1;;
23252;SDS011;11795;47.054;15.408;2023-03-31T12:16:02;1.8;;;1.1;;
23252;SDS011;11795;47.054;15.408;2023-03-31T12:18:02;1.8;;;1.1;;
23252;SDS011;11795;47.054;15.408;2023-03-31T12:20:02;2.3;;;1.2;;
23252;SDS011;11795;47.054;15.408;2023-03-31T12:22:03;2.3;;;1.2;;
23252;SDS011;11795;47.054;15.408;2023-03-31T12:24:01;1.7;;;1.3;;